sensor_id;sensor_type;location;lat;lon;timestamp;pressure;altitude;pressure_sealevel;temperature;humidity
60611;BME280;46439;51.164;13.572;2023-11-18T00:01:20;100708.37;;;6.61;100.00
60611;BME280;46439;51.164;13.572;2023-11-18T00:03:49;100710.98;;;6.58;100.00
60611;BME280;46439;51.164;13.572;2023-11-18T00:06:18;100717.17;;;6.52;100.00
60611;BME280;46439;51.164;13.572;2023-11-18T00:08:46;100722.27;;;6.51;100.00
60611;BME280;46439;51.164;13.572;2023-11-18T00:11:15;100726.02;;;6.51;100.00
60611;BME280;46439;51.164;13.572;2023-11-18T00:13:44;100728.55;;;6.53;100.00
60611;BME280;46439;51.164;13.572;2023-11-18T00:16:13;100730.49;;;6.51;100.00
60611;BME280;46439;51.164;13.572;2023-11-18T00:18:41;100735.91;;;6.51;100.00
60611;BME280;46439;51.164;13.572;2023-11-18T00:21:10;100737.20;;;6.52;100.00
60611;BME280;46439;51.164;13.572;2023-11-18T00:23:39;100740.48;;;6.51;100.00
60611;BME280;46439;51.164;13.572;2023-11-18T00:26:08;100740.11;;;6.51;100.00
60611;BME280;46439;51.164;13.572;2023-11-18T00:28:39;100745.85;;;6.49;100.00
60611;BME280;46439;51.164;13.572;2023-11-18T00:31:08;100749.45;;;6.47;100.00
60611;BME280;46439;51.164;13.572;2023-11-18T00:33:37;100749.00;;;6.48;100.00
60611;BME280;46439;51.164;13.572;2023-11-18T00:36:08;100753.21;;;6.49;100.00
60611;BME280;46439;51.164;13.572;2023-11-18T00:38:37;100760.76;;;6.50;100.00
60611;BME280;46439;51.164;13.572;2023-11-18T00:41:07;100763.24;;;6.51;100.00
60611;BME280;46439;51.164;13.572;2023-11-18T00:43:36;100766.29;;;6.51;100.00
60611;BME280;46439;51.164;13.572;2023-11-18T00:46:05;100769.02;;;6.48;100.00
60611;BME280;46439;51.164;13.572;2023-11-18T00:48:34;100772.08;;;6.46;100.00
60611;BME280;46439;51.164;13.572;2023-11-18T00:51:03;100773.09;;;6.45;100.00
60611;BME280;46439;51.164;13.572;2023-11-18T00:53:32;100774.36;;;6.44;100.00
60611;BME280;46439;51.164;13.572;2023-11-18T00:56:01;100777.36;;;6.45;100.00
60611;BME280;46439;51.164;13.572;2023-11-18T00:58:30;100776.14;;;6.43;100.00
60611;BME280;46439;51.164;13.572;2023-11-18T01:00:58;100778.08;;;6.39;100.00
60611;BME280;46439;51.164;13.572;2023-11-18T01:03:27;100781.17;;;6.38;100.00
60611;BME280;46439;51.164;13.572;2023-11-18T01:05:56;100781.71;;;6.38;100.00
60611;BME280;46439;51.164;13.572;2023-11-18T01:08:24;100781.60;;;6.39;100.00
60611;BME280;46439;51.164;13.572;2023-11-18T01:10:53;100786.17;;;6.38;100.00
60611;BME280;46439;51.164;13.572;2023-11-18T01:13:22;100786.98;;;6.39;100.00
60611;BME280;46439;51.164;13.572;2023-11-18T01:15:51;100789.19;;;6.40;100.00
60611;BME280;46439;51.164;13.572;2023-11-18T01:18:20;100788.10;;;6.38;100.00
60611;BME280;46439;51.164;13.572;2023-11-18T01:20:49;100789.91;;;6.38;100.00
60611;BME280;46439;51.164;13.572;2023-11-18T01:23:18;100792.75;;;6.39;100.00
60611;BME280;46439;51.164;13.572;2023-11-18T01:25:47;100796.67;;;6.38;100.00
60611;BME280;46439;51.164;13.572;2023-11-18T01:28:18;100792.81;;;6.38;100.00
60611;BME280;46439;51.164;13.572;2023-11-18T01:30:46;100793.46;;;6.43;100.00
60611;BME280;46439;51.164;13.572;2023-11-18T01:33:15;100795.58;;;6.43;100.00
60611;BME280;46439;51.164;13.572;2023-11-18T01:35:44;100796.44;;;6.39;100.00
60611;BME280;46439;51.164;13.572;2023-11-18T01:38:13;100799.89;;;6.38;100.00
60611;BME280;46439;51.164;13.572;2023-11-18T01:40:41;100803.09;;;6.39;100.00
60611;BME280;46439;51.164;13.572;2023-11-18T01:43:11;100805.02;;;6.39;100.00
60611;BME280;46439;51.164;13.572;2023-11-18T01:45:42;100802.81;;;6.35;100.00
60611;BME280;46439;51.164;13.572;2023-11-18T01:48:11;100800.84;;;6.31;100.00
60611;BME280;46439;51.164;13.572;2023-11-18T01:50:42;100803.24;;;6.24;100.00
60611;BME280;46439;51.164;13.572;2023-11-18T01:53:13;100804.64;;;6.22;100.00
60611;BME280;46439;51.164;13.572;2023-11-18T01:55:45;100808.14;;;6.19;100.00
60611;BME280;46439;51.164;13.572;2023-11-18T01:58:14;100807.67;;;6.18;100.00
60611;BME280;46439;51.164;13.572;2023-11-18T02:01:07;100809.16;;;6.17;100.00
60611;BME280;46439;51.164;13.572;2023-11-18T02:03:37;100804.52;;;6.15;100.00
60611;BME280;46439;51.164;13.572;2023-11-18T02:06:08;100804.66;;;6.18;100.00
60611;BME280;46439;51.164;13.572;2023-11-18T02:08:39;100809.37;;;6.21;100.00
60611;BME280;46439;51.164;13.572;2023-11-18T02:11:17;100812.56;;;6.26;100.00
60611;BME280;46439;51.164;13.572;2023-11-18T02:13:49;100817.97;;;6.27;100.00
60611;BME280;46439;51.164;13.572;2023-11-18T02:16:21;100817.86;;;6.27;100.00
60611;BME280;46439;51.164;13.572;2023-11-18T02:18:51;100822.52;;;6.29;100.00
60611;BME280;46439;51.164;13.572;2023-11-18T02:21:22;100830.23;;;6.32;100.00
60611;BME280;46439;51.164;13.572;2023-11-18T02:23:51;100830.51;;;6.40;100.00
60611;BME280;46439;51.164;13.572;2023-11-18T02:26:24;100833.43;;;6.43;100.00
60611;BME280;46439;51.164;13.572;2023-11-18T02:28:54;100831.91;;;6.47;100.00
60611;BME280;46439;51.164;13.572;2023-11-18T02:31:30;100828.27;;;6.54;100.00
60611;BME280;46439;51.164;13.572;2023-11-18T02:34:04;100825.69;;;6.57;100.00
60611;BME280;46439;51.164;13.572;2023-11-18T02:36:39;100823.36;;;6.55;100.00
60611;BME280;46439;51.164;13.572;2023-11-18T02:39:12;100823.95;;;6.56;100.00
60611;BME280;46439;51.164;13.572;2023-11-18T02:41:48;100823.00;;;6.57;100.00
60611;BME280;46439;51.164;13.572;2023-11-18T02:44:23;100818.36;;;6.55;100.00
60611;BME280;46439;51.164;13.572;2023-11-18T02:46:54;100822.36;;;6.58;100.00
60611;BME280;46439;51.164;13.572;2023-11-18T02:49:22;100824.77;;;6.55;100.00
60611;BME280;46439;51.164;13.572;2023-11-18T02:51:51;100828.17;;;6.53;100.00
60611;BME280;46439;51.164;13.572;2023-11-18T02:54:20;100825.91;;;6.57;100.00
60611;BME280;46439;51.164;13.572;2023-11-18T02:56:49;100828.58;;;6.57;100.00
60611;BME280;46439;51.164;13.572;2023-11-18T02:59:18;100829.19;;;6.60;100.00
60611;BME280;46439;51.164;13.572;2023-11-18T03:01:47;100832.16;;;6.63;100.00
60611;BME280;46439;51.164;13.572;2023-11-18T03:04:15;100832.77;;;6.66;100.00
60611;BME280;46439;51.164;13.572;2023-11-18T03:06:47;100833.06;;;6.67;100.00
60611;BME280;46439;51.164;13.572;2023-11-18T03:09:16;100839.86;;;6.69;100.00
60611;BME280;46439;51.164;13.572;2023-11-18T03:11:44;100840.25;;;6.77;100.00
60611;BME280;46439;51.164;13.572;2023-11-18T03:14:13;100844.73;;;6.83;100.00
60611;BME280;46439;51.164;13.572;2023-11-18T03:16:42;100839.11;;;6.82;100.00
60611;BME280;46439;51.164;13.572;2023-11-18T03:19:10;100838.92;;;6.86;100.00
60611;BME280;46439;51.164;13.572;2023-11-18T03:21:39;100836.63;;;6.98;100.00
60611;BME280;46439;51.164;13.572;2023-11-18T03:24:09;100837.27;;;7.07;100.00
60611;BME280;46439;51.164;13.572;2023-11-18T03:26:38;100841.48;;;7.10;100.00
60611;BME280;46439;51.164;13.572;2023-11-18T03:29:06;100836.64;;;7.16;100.00
60611;BME280;46439;51.164;13.572;2023-11-18T03:31:35;100835.70;;;7.23;100.00
60611;BME280;46439;51.164;13.572;2023-11-18T03:34:04;100840.17;;;7.31;100.00
60611;BME280;46439;51.164;13.572;2023-11-18T03:36:32;100839.81;;;7.37;100.00
60611;BME280;46439;51.164;13.572;2023-11-18T03:39:01;100844.54;;;7.40;100.00
60611;BME280;46439;51.164;13.572;2023-11-18T03:41:32;100848.05;;;7.43;100.00
60611;BME280;46439;51.164;13.572;2023-11-18T03:44:01;100848.71;;;7.44;100.00
60611;BME280;46439;51.164;13.572;2023-11-18T03:46:29;100851.30;;;7.43;100.00
60611;BME280;46439;51.164;13.572;2023-11-18T03:49:02;100855.80;;;7.43;100.00
60611;BME280;46439;51.164;13.572;2023-11-18T03:51:31;100856.96;;;7.42;100.00
60611;BME280;46439;51.164;13.572;2023-11-18T03:54:00;100855.48;;;7.42;100.00
60611;BME280;46439;51.164;13.572;2023-11-18T03:56:28;100858.10;;;7.45;100.00
60611;BME280;46439;51.164;13.572;2023-11-18T03:58:57;100854.45;;;7.46;100.00
60611;BME280;46439;51.164;13.572;2023-11-18T04:01:26;100855.45;;;7.46;100.00
60611;BME280;46439;51.164;13.572;2023-11-18T04:03:55;100857.12;;;7.48;100.00
60611;BME280;46439;51.164;13.572;2023-11-18T04:06:24;100854.42;;;7.50;100.00
60611;BME280;46439;51.164;13.572;2023-11-18T04:08:53;100857.45;;;7.54;100.00
60611;BME280;46439;51.164;13.572;2023-11-18T04:11:22;100857.93;;;7.55;100.00
60611;BME280;46439;51.164;13.572;2023-11-18T04:13:50;100861.50;;;7.57;100.00
60611;BME280;46439;51.164;13.572;2023-11-18T04:16:19;100865.79;;;7.61;100.00
60611;BME280;46439;51.164;13.572;2023-11-18T04:18:48;100868.34;;;7.65;100.00
60611;BME280;46439;51.164;13.572;2023-11-18T04:21:17;100871.75;;;7.69;100.00
60611;BME280;46439;51.164;13.572;2023-11-18T04:23:46;100868.34;;;7.73;100.00
60611;BME280;46439;51.164;13.572;2023-11-18T04:26:15;100876.46;;;7.77;100.00
60611;BME280;46439;51.164;13.572;2023-11-18T04:28:43;100876.63;;;7.76;100.00
60611;BME280;46439;51.164;13.572;2023-11-18T04:31:12;100882.17;;;7.78;100.00
60611;BME280;46439;51.164;13.572;2023-11-18T04:33:41;100884.00;;;7.80;100.00
60611;BME280;46439;51.164;13.572;2023-11-18T04:36:11;100885.79;;;7.82;100.00
60611;BME280;46439;51.164;13.572;2023-11-18T04:38:41;100888.61;;;7.81;100.00
60611;BME280;46439;51.164;13.572;2023-11-18T04:41:10;100886.31;;;7.78;100.00
60611;BME280;46439;51.164;13.572;2023-11-18T04:43:39;100886.98;;;7.75;100.00
60611;BME280;46439;51.164;13.572;2023-11-18T04:46:10;100888.49;;;7.68;100.00
60611;BME280;46439;51.164;13.572;2023-11-18T04:48:39;100890.39;;;7.59;100.00
60611;BME280;46439;51.164;13.572;2023-11-18T04:51:07;100887.43;;;7.56;100.00
60611;BME280;46439;51.164;13.572;2023-11-18T04:53:36;100886.80;;;7.50;100.00
60611;BME280;46439;51.164;13.572;2023-11-18T04:56:06;100888.08;;;7.44;100.00
60611;BME280;46439;51.164;13.572;2023-11-18T04:58:39;100889.02;;;7.40;100.00
60611;BME280;46439;51.164;13.572;2023-11-18T05:01:10;100890.66;;;7.27;100.00
60611;BME280;46439;51.164;13.572;2023-11-18T05:03:38;100887.41;;;7.15;100.00
60611;BME280;46439;51.164;13.572;2023-11-18T05:06:08;100889.88;;;7.07;100.00
60611;BME280;46439;51.164;13.572;2023-11-18T05:08:37;100889.39;;;7.00;100.00
60611;BME280;46439;51.164;13.572;2023-11-18T05:11:06;100891.80;;;6.97;100.00
60611;BME280;46439;51.164;13.572;2023-11-18T05:13:34;100892.62;;;7.00;100.00
60611;BME280;46439;51.164;13.572;2023-11-18T05:16:04;100894.05;;;6.98;100.00
60611;BME280;46439;51.164;13.572;2023-11-18T05:18:33;100890.70;;;6.93;100.00
60611;BME280;46439;51.164;13.572;2023-11-18T05:21:05;100895.52;;;6.91;100.00
60611;BME280;46439;51.164;13.572;2023-11-18T05:23:35;100893.52;;;6.88;100.00
60611;BME280;46439;51.164;13.572;2023-11-18T05:26:07;100892.90;;;6.78;100.00
60611;BME280;46439;51.164;13.572;2023-11-18T05:28:35;100894.23;;;6.71;100.00
60611;BME280;46439;51.164;13.572;2023-11-18T05:31:05;100895.88;;;6.68;100.00
60611;BME280;46439;51.164;13.572;2023-11-18T05:33:34;100898.50;;;6.69;100.00
60611;BME280;46439;51.164;13.572;2023-11-18T05:36:04;100901.27;;;6.74;100.00
60611;BME280;46439;51.164;13.572;2023-11-18T05:38:35;100902.39;;;6.74;100.00
60611;BME280;46439;51.164;13.572;2023-11-18T05:41:05;100899.15;;;6.74;100.00
60611;BME280;46439;51.164;13.572;2023-11-18T05:43:34;100899.89;;;6.70;100.00
60611;BME280;46439;51.164;13.572;2023-11-18T05:46:09;100897.44;;;6.71;100.00
60611;BME280;46439;51.164;13.572;2023-11-18T05:48:49;100896.24;;;6.75;100.00
60611;BME280;46439;51.164;13.572;2023-11-18T05:51:21;100899.52;;;6.78;100.00
60611;BME280;46439;51.164;13.572;2023-11-18T05:53:50;100899.73;;;6.86;100.00
60611;BME280;46439;51.164;13.572;2023-11-18T05:56:20;100900.24;;;6.91;100.00
60611;BME280;46439;51.164;13.572;2023-11-18T05:58:53;100902.83;;;6.94;100.00
60611;BME280;46439;51.164;13.572;2023-11-18T06:01:22;100906.02;;;6.94;100.00
60611;BME280;46439;51.164;13.572;2023-11-18T06:03:51;100907.34;;;6.98;100.00
60611;BME280;46439;51.164;13.572;2023-11-18T06:06:20;100909.63;;;7.05;100.00
60611;BME280;46439;51.164;13.572;2023-11-18T06:08:50;100913.23;;;7.06;100.00
60611;BME280;46439;51.164;13.572;2023-11-18T06:11:19;100917.23;;;7.05;100.00
60611;BME280;46439;51.164;13.572;2023-11-18T06:13:49;100923.45;;;7.02;100.00
60611;BME280;46439;51.164;13.572;2023-11-18T06:16:20;100922.03;;;6.96;100.00
60611;BME280;46439;51.164;13.572;2023-11-18T06:18:50;100918.30;;;6.89;100.00
60611;BME280;46439;51.164;13.572;2023-11-18T06:21:20;100920.70;;;6.84;100.00
60611;BME280;46439;51.164;13.572;2023-11-18T06:23:52;100918.25;;;6.81;100.00
60611;BME280;46439;51.164;13.572;2023-11-18T06:26:23;100922.36;;;6.79;100.00
60611;BME280;46439;51.164;13.572;2023-11-18T06:28:53;100924.86;;;6.75;100.00
60611;BME280;46439;51.164;13.572;2023-11-18T06:31:23;100923.64;;;6.74;100.00
60611;BME280;46439;51.164;13.572;2023-11-18T06:33:54;100928.09;;;6.72;100.00
60611;BME280;46439;51.164;13.572;2023-11-18T06:36:23;100928.41;;;6.66;100.00
60611;BME280;46439;51.164;13.572;2023-11-18T06:38:55;100929.49;;;6.68;100.00
60611;BME280;46439;51.164;13.572;2023-11-18T06:41:24;100929.96;;;6.63;100.00
60611;BME280;46439;51.164;13.572;2023-11-18T06:44:01;100931.16;;;6.61;100.00
60611;BME280;46439;51.164;13.572;2023-11-18T06:46:37;100939.77;;;6.64;100.00
60611;BME280;46439;51.164;13.572;2023-11-18T06:49:08;100938.98;;;6.66;100.00
60611;BME280;46439;51.164;13.572;2023-11-18T06:51:39;100942.66;;;6.65;100.00
60611;BME280;46439;51.164;13.572;2023-11-18T06:54:08;100937.23;;;6.66;100.00
60611;BME280;46439;51.164;13.572;2023-11-18T06:56:39;100939.48;;;6.64;100.00
60611;BME280;46439;51.164;13.572;2023-11-18T06:59:11;100944.34;;;6.64;100.00
60611;BME280;46439;51.164;13.572;2023-11-18T07:01:41;100945.25;;;6.66;100.00
60611;BME280;46439;51.164;13.572;2023-11-18T07:04:11;100948.95;;;6.69;100.00
60611;BME280;46439;51.164;13.572;2023-11-18T07:06:40;100945.96;;;6.72;100.00
60611;BME280;46439;51.164;13.572;2023-11-18T07:09:09;100947.06;;;6.75;100.00
60611;BME280;46439;51.164;13.572;2023-11-18T07:11:42;100950.75;;;6.73;100.00
60611;BME280;46439;51.164;13.572;2023-11-18T07:14:11;100953.64;;;6.75;100.00
60611;BME280;46439;51.164;13.572;2023-11-18T07:16:41;100953.39;;;6.80;100.00
60611;BME280;46439;51.164;13.572;2023-11-18T07:19:10;100956.01;;;6.85;100.00
60611;BME280;46439;51.164;13.572;2023-11-18T07:21:45;100956.38;;;6.85;100.00
60611;BME280;46439;51.164;13.572;2023-11-18T07:24:14;100955.86;;;6.85;100.00
60611;BME280;46439;51.164;13.572;2023-11-18T07:26:44;100958.92;;;6.83;100.00
60611;BME280;46439;51.164;13.572;2023-11-18T07:29:13;100958.83;;;6.88;100.00
60611;BME280;46439;51.164;13.572;2023-11-18T07:31:42;100961.29;;;6.92;100.00
60611;BME280;46439;51.164;13.572;2023-11-18T07:34:11;100963.41;;;7.01;100.00
60611;BME280;46439;51.164;13.572;2023-11-18T07:36:40;100962.87;;;7.05;100.00
60611;BME280;46439;51.164;13.572;2023-11-18T07:39:09;100964.95;;;7.12;100.00
60611;BME280;46439;51.164;13.572;2023-11-18T07:41:50;100969.95;;;7.21;100.00
60611;BME280;46439;51.164;13.572;2023-11-18T07:44:20;100968.54;;;7.27;100.00
60611;BME280;46439;51.164;13.572;2023-11-18T07:46:50;100966.40;;;7.27;100.00
60611;BME280;46439;51.164;13.572;2023-11-18T07:49:18;100970.36;;;7.29;100.00
60611;BME280;46439;51.164;13.572;2023-11-18T07:51:47;100973.67;;;7.32;100.00
60611;BME280;46439;51.164;13.572;2023-11-18T07:54:16;100975.85;;;7.32;100.00
60611;BME280;46439;51.164;13.572;2023-11-18T07:56:46;100980.32;;;7.29;100.00
60611;BME280;46439;51.164;13.572;2023-11-18T07:59:17;100981.92;;;7.28;100.00
60611;BME280;46439;51.164;13.572;2023-11-18T08:01:46;100988.71;;;7.30;100.00
60611;BME280;46439;51.164;13.572;2023-11-18T08:04:15;100994.89;;;7.31;100.00
60611;BME280;46439;51.164;13.572;2023-11-18T08:06:45;100995.44;;;7.33;100.00
60611;BME280;46439;51.164;13.572;2023-11-18T08:09:14;100987.52;;;7.38;100.00
60611;BME280;46439;51.164;13.572;2023-11-18T08:11:51;100990.96;;;7.41;100.00
60611;BME280;46439;51.164;13.572;2023-11-18T08:14:19;100989.89;;;7.45;100.00
60611;BME280;46439;51.164;13.572;2023-11-18T08:16:48;100990.35;;;7.50;100.00
60611;BME280;46439;51.164;13.572;2023-11-18T08:19:18;100992.71;;;7.52;100.00
60611;BME280;46439;51.164;13.572;2023-11-18T08:21:47;100993.85;;;7.51;100.00
60611;BME280;46439;51.164;13.572;2023-11-18T08:24:15;100999.56;;;7.54;100.00
60611;BME280;46439;51.164;13.572;2023-11-18T08:26:44;101006.95;;;7.53;100.00
60611;BME280;46439;51.164;13.572;2023-11-18T08:29:14;101010.85;;;7.54;100.00
60611;BME280;46439;51.164;13.572;2023-11-18T08:31:43;101014.85;;;7.49;100.00
60611;BME280;46439;51.164;13.572;2023-11-18T08:34:12;101018.52;;;7.44;100.00
60611;BME280;46439;51.164;13.572;2023-11-18T08:36:42;101018.84;;;7.40;100.00
60611;BME280;46439;51.164;13.572;2023-11-18T08:39:12;101020.98;;;7.38;100.00
60611;BME280;46439;51.164;13.572;2023-11-18T08:41:45;101021.81;;;7.37;100.00
60611;BME280;46439;51.164;13.572;2023-11-18T08:44:14;101024.27;;;7.39;100.00
60611;BME280;46439;51.164;13.572;2023-11-18T08:46:43;101025.02;;;7.43;100.00
60611;BME280;46439;51.164;13.572;2023-11-18T08:49:12;101029.61;;;7.50;100.00
60611;BME280;46439;51.164;13.572;2023-11-18T08:51:41;101029.16;;;7.55;100.00
60611;BME280;46439;51.164;13.572;2023-11-18T08:54:14;101028.94;;;7.56;100.00
60611;BME280;46439;51.164;13.572;2023-11-18T08:56:54;101032.66;;;7.48;100.00
60611;BME280;46439;51.164;13.572;2023-11-18T08:59:23;101033.86;;;7.46;100.00
60611;BME280;46439;51.164;13.572;2023-11-18T09:01:56;101029.35;;;7.49;100.00
60611;BME280;46439;51.164;13.572;2023-11-18T09:04:25;101027.65;;;7.48;100.00
60611;BME280;46439;51.164;13.572;2023-11-18T09:06:54;101029.44;;;7.45;100.00
60611;BME280;46439;51.164;13.572;2023-11-18T09:09:23;101033.09;;;7.47;100.00
60611;BME280;46439;51.164;13.572;2023-11-18T09:11:57;101034.82;;;7.54;100.00
60611;BME280;46439;51.164;13.572;2023-11-18T09:14:26;101035.28;;;7.57;100.00
60611;BME280;46439;51.164;13.572;2023-11-18T09:16:55;101034.02;;;7.63;100.00
60611;BME280;46439;51.164;13.572;2023-11-18T09:19:24;101034.15;;;7.68;100.00
60611;BME280;46439;51.164;13.572;2023-11-18T09:21:53;101042.21;;;7.72;100.00
60611;BME280;46439;51.164;13.572;2023-11-18T09:24:23;101040.91;;;7.77;100.00
60611;BME280;46439;51.164;13.572;2023-11-18T09:26:53;101043.66;;;7.72;100.00
60611;BME280;46439;51.164;13.572;2023-11-18T09:29:23;101038.24;;;7.76;100.00
60611;BME280;46439;51.164;13.572;2023-11-18T09:31:52;101036.79;;;7.77;100.00
60611;BME280;46439;51.164;13.572;2023-11-18T09:34:21;101036.84;;;7.78;100.00
60611;BME280;46439;51.164;13.572;2023-11-18T09:36:55;101031.85;;;7.82;100.00
60611;BME280;46439;51.164;13.572;2023-11-18T09:39:24;101029.41;;;7.81;100.00
60611;BME280;46439;51.164;13.572;2023-11-18T09:42:07;101023.94;;;7.76;100.00
60611;BME280;46439;51.164;13.572;2023-11-18T09:44:40;101026.09;;;7.76;100.00
60611;BME280;46439;51.164;13.572;2023-11-18T09:47:10;101027.61;;;7.81;100.00
60611;BME280;46439;51.164;13.572;2023-11-18T09:49:46;101026.90;;;7.83;100.00
60611;BME280;46439;51.164;13.572;2023-11-18T09:52:20;101028.36;;;7.92;100.00
60611;BME280;46439;51.164;13.572;2023-11-18T09:55:07;101025.44;;;7.92;100.00
60611;BME280;46439;51.164;13.572;2023-11-18T09:57:46;101033.80;;;7.97;100.00
60611;BME280;46439;51.164;13.572;2023-11-18T10:00:28;101035.89;;;7.98;100.00
60611;BME280;46439;51.164;13.572;2023-11-18T10:03:00;101039.49;;;7.99;100.00
60611;BME280;46439;51.164;13.572;2023-11-18T10:05:30;101041.98;;;8.01;100.00
60611;BME280;46439;51.164;13.572;2023-11-18T10:07:59;101039.42;;;8.08;100.00
60611;BME280;46439;51.164;13.572;2023-11-18T10:10:27;101032.79;;;8.10;100.00
60611;BME280;46439;51.164;13.572;2023-11-18T10:13:05;101023.80;;;8.17;100.00
60611;BME280;46439;51.164;13.572;2023-11-18T10:15:47;101023.00;;;8.20;100.00
60611;BME280;46439;51.164;13.572;2023-11-18T10:18:20;101024.42;;;8.17;100.00
60611;BME280;46439;51.164;13.572;2023-11-18T10:20:53;101029.92;;;8.18;100.00
60611;BME280;46439;51.164;13.572;2023-11-18T10:23:23;101031.22;;;8.24;100.00
60611;BME280;46439;51.164;13.572;2023-11-18T10:25:54;101028.00;;;8.34;100.00
60611;BME280;46439;51.164;13.572;2023-11-18T10:28:25;101028.31;;;8.40;100.00
60611;BME280;46439;51.164;13.572;2023-11-18T10:30:58;101025.28;;;8.44;100.00
60611;BME280;46439;51.164;13.572;2023-11-18T10:33:27;101028.67;;;8.49;100.00
60611;BME280;46439;51.164;13.572;2023-11-18T10:36:00;101032.07;;;8.49;100.00
60611;BME280;46439;51.164;13.572;2023-11-18T10:38:32;101032.61;;;8.49;100.00
60611;BME280;46439;51.164;13.572;2023-11-18T10:41:06;101030.66;;;8.53;100.00
60611;BME280;46439;51.164;13.572;2023-11-18T10:43:35;101031.36;;;8.51;100.00
60611;BME280;46439;51.164;13.572;2023-11-18T10:46:09;101028.50;;;8.49;100.00
60611;BME280;46439;51.164;13.572;2023-11-18T10:48:43;101025.60;;;8.49;100.00
60611;BME280;46439;51.164;13.572;2023-11-18T10:51:14;101025.30;;;8.52;100.00
60611;BME280;46439;51.164;13.572;2023-11-18T10:53:46;101031.45;;;8.54;100.00
60611;BME280;46439;51.164;13.572;2023-11-18T10:56:22;101027.09;;;8.56;100.00
60611;BME280;46439;51.164;13.572;2023-11-18T10:58:59;101023.93;;;8.56;100.00
60611;BME280;46439;51.164;13.572;2023-11-18T11:01:35;101018.16;;;8.57;100.00
60611;BME280;46439;51.164;13.572;2023-11-18T11:04:10;101014.05;;;8.57;100.00
60611;BME280;46439;51.164;13.572;2023-11-18T11:06:42;101019.48;;;8.59;100.00
60611;BME280;46439;51.164;13.572;2023-11-18T11:09:11;101023.96;;;8.67;100.00
60611;BME280;46439;51.164;13.572;2023-11-18T11:11:52;101017.88;;;8.74;100.00
60611;BME280;46439;51.164;13.572;2023-11-18T11:14:22;101011.00;;;8.79;100.00
60611;BME280;46439;51.164;13.572;2023-11-18T11:17:07;101011.15;;;8.87;100.00
60611;BME280;46439;51.164;13.572;2023-11-18T11:19:49;101011.79;;;8.94;100.00
60611;BME280;46439;51.164;13.572;2023-11-18T11:22:36;101012.84;;;9.00;100.00
60611;BME280;46439;51.164;13.572;2023-11-18T11:25:13;101019.04;;;9.09;100.00
60611;BME280;46439;51.164;13.572;2023-11-18T11:27:56;101023.84;;;9.13;100.00
60611;BME280;46439;51.164;13.572;2023-11-18T11:30:39;101021.57;;;9.13;100.00
60611;BME280;46439;51.164;13.572;2023-11-18T11:33:17;101017.87;;;9.18;100.00
60611;BME280;46439;51.164;13.572;2023-11-18T11:35:55;101009.59;;;9.16;100.00
60611;BME280;46439;51.164;13.572;2023-11-18T11:38:27;101003.10;;;9.16;100.00
60611;BME280;46439;51.164;13.572;2023-11-18T11:40:59;101007.84;;;9.14;100.00
60611;BME280;46439;51.164;13.572;2023-11-18T11:43:30;101010.39;;;9.15;100.00
60611;BME280;46439;51.164;13.572;2023-11-18T11:46:04;101007.17;;;9.22;100.00
60611;BME280;46439;51.164;13.572;2023-11-18T11:48:39;101005.38;;;9.27;100.00
60611;BME280;46439;51.164;13.572;2023-11-18T11:51:20;100998.45;;;9.33;100.00
60611;BME280;46439;51.164;13.572;2023-11-18T11:53:58;100996.01;;;9.32;100.00
60611;BME280;46439;51.164;13.572;2023-11-18T11:56:41;100988.58;;;9.31;100.00
60611;BME280;46439;51.164;13.572;2023-11-18T11:59:09;100988.66;;;9.30;100.00
60611;BME280;46439;51.164;13.572;2023-11-18T12:01:42;100988.56;;;9.29;100.00
60611;BME280;46439;51.164;13.572;2023-11-18T12:04:16;100981.16;;;9.30;100.00
60611;BME280;46439;51.164;13.572;2023-11-18T12:06:56;100974.17;;;9.31;100.00
60611;BME280;46439;51.164;13.572;2023-11-18T12:09:31;100980.99;;;9.35;100.00
60611;BME280;46439;51.164;13.572;2023-11-18T12:12:13;100978.27;;;9.41;100.00
60611;BME280;46439;51.164;13.572;2023-11-18T12:14:55;100973.66;;;9.45;100.00
60611;BME280;46439;51.164;13.572;2023-11-18T12:18:12;100969.75;;;9.48;100.00
60611;BME280;46439;51.164;13.572;2023-11-18T12:20:42;100961.20;;;9.55;100.00
60611;BME280;46439;51.164;13.572;2023-11-18T12:23:16;100954.98;;;9.54;100.00
60611;BME280;46439;51.164;13.572;2023-11-18T12:25:51;100949.98;;;9.48;100.00
60611;BME280;46439;51.164;13.572;2023-11-18T12:28:26;100939.92;;;9.44;100.00
60611;BME280;46439;51.164;13.572;2023-11-18T12:30:56;100941.35;;;9.48;100.00
60611;BME280;46439;51.164;13.572;2023-11-18T12:33:26;100940.58;;;9.54;100.00
60611;BME280;46439;51.164;13.572;2023-11-18T12:36:53;100940.12;;;9.53;100.00
60611;BME280;46439;51.164;13.572;2023-11-18T12:39:51;100938.31;;;9.57;100.00
60611;BME280;46439;51.164;13.572;2023-11-18T12:43:01;100935.65;;;9.57;100.00
60611;BME280;46439;51.164;13.572;2023-11-18T12:46:00;100930.44;;;9.60;100.00
60611;BME280;46439;51.164;13.572;2023-11-18T12:48:37;100923.09;;;9.62;100.00
60611;BME280;46439;51.164;13.572;2023-11-18T12:51:12;100918.05;;;9.68;100.00
60611;BME280;46439;51.164;13.572;2023-11-18T12:53:49;100914.23;;;9.74;100.00
60611;BME280;46439;51.164;13.572;2023-11-18T12:56:22;100906.88;;;9.79;100.00
60611;BME280;46439;51.164;13.572;2023-11-18T12:58:53;100905.14;;;9.80;100.00
60611;BME280;46439;51.164;13.572;2023-11-18T13:01:25;100904.42;;;9.78;100.00
60611;BME280;46439;51.164;13.572;2023-11-18T13:03:56;100903.20;;;9.78;100.00